createdAt,value
2018-07-11T00:02:14.442Z,101046.46
2018-07-11T00:04:43.476Z,101041.77
2018-07-11T00:07:12.512Z,101037.97
2018-07-11T00:09:41.253Z,101034.65
2018-07-11T00:12:09.883Z,101027.91
2018-07-11T00:14:38.520Z,101028.01
2018-07-11T00:17:11.276Z,101029.80
2018-07-11T00:19:40.002Z,101029.89
2018-07-11T00:22:09.187Z,101025.35
2018-07-11T00:24:37.994Z,101026.48
2018-07-11T00:27:07.832Z,101024.32
2018-07-11T00:29:36.490Z,101024.84
2018-07-11T00:32:05.155Z,101028.36
2018-07-11T00:34:33.838Z,101027.73
2018-07-11T00:37:02.575Z,101024.02
2018-07-11T00:39:31.657Z,101023.28
2018-07-11T00:42:00.325Z,101021.66
2018-07-11T00:44:29.058Z,101024.23
2018-07-11T00:46:57.752Z,101022.70
2018-07-11T00:49:26.420Z,101021.95
2018-07-11T00:51:55.380Z,101014.10
2018-07-11T00:54:24.030Z,101011.16
2018-07-11T00:56:52.692Z,101006.41
2018-07-11T00:59:27.215Z,100998.94
2018-07-11T01:02:00.683Z,100995.19
2018-07-11T01:04:29.666Z,100995.20
2018-07-11T01:06:59.409Z,100991.47
2018-07-11T01:09:28.430Z,100994.58
2018-07-11T01:11:57.083Z,100993.02
2018-07-11T01:14:25.735Z,100990.43
2018-07-11T01:16:54.479Z,100983.58
2018-07-11T01:19:24.453Z,100976.55
2018-07-11T01:22:03.588Z,100979.14
2018-07-11T01:24:32.814Z,100971.76
2018-07-11T01:27:02.237Z,100976.94
2018-07-11T01:29:30.885Z,100974.45
2018-07-11T01:32:00.687Z,100971.03
2018-07-11T01:34:29.391Z,100975.93
2018-07-11T01:36:58.528Z,100987.09
2018-07-11T01:39:27.241Z,100989.06
2018-07-11T01:41:56.071Z,100992.08
2018-07-11T01:44:24.695Z,100989.17
2018-07-11T01:46:53.858Z,100994.33
2018-07-11T01:49:22.505Z,100990.28
2018-07-11T01:52:02.326Z,100991.24
2018-07-11T01:54:31.074Z,100991.77
2018-07-11T01:56:59.865Z,100985.96
2018-07-11T01:59:32.849Z,100988.52
2018-07-11T02:02:02.209Z,100985.70
2018-07-11T02:04:32.298Z,100989.22
2018-07-11T02:07:01.298Z,100987.98
2018-07-11T02:09:31.069Z,100986.63
2018-07-11T02:11:59.932Z,100992.77
2018-07-11T02:14:28.634Z,100993.29
2018-07-11T02:16:57.360Z,100994.12
2018-07-11T02:19:26.085Z,100989.06
2018-07-11T02:21:54.815Z,100995.52
2018-07-11T02:24:25.014Z,100994.38
2018-07-11T02:26:54.513Z,100991.38
2018-07-11T02:29:24.044Z,100979.58
2018-07-11T02:31:52.757Z,100982.07
2018-07-11T02:34:27.364Z,100983.60
2018-07-11T02:36:56.339Z,100980.78
2018-07-11T02:39:25.614Z,100975.70
2018-07-11T02:41:54.628Z,100974.59
2018-07-11T02:44:23.361Z,100978.09
2018-07-11T02:46:57.144Z,100973.64
2018-07-11T02:49:26.121Z,100971.77
2018-07-11T02:51:54.765Z,100974.47
2018-07-11T02:54:23.489Z,100979.86
2018-07-11T02:56:52.615Z,100984.41
2018-07-11T02:59:21.308Z,100989.08
2018-07-11T03:01:49.983Z,100984.00
2018-07-11T03:04:18.674Z,100985.63
2018-07-11T03:06:47.456Z,100988.33
2018-07-11T03:09:16.556Z,100985.63
2018-07-11T03:11:45.225Z,100986.91
2018-07-11T03:14:13.909Z,100991.27
2018-07-11T03:16:42.922Z,100985.87
2018-07-11T03:19:11.604Z,100993.23
2018-07-11T03:21:40.202Z,100996.73
2018-07-11T03:24:09.202Z,100992.92
2018-07-11T03:26:38.448Z,100991.27
2018-07-11T03:29:07.167Z,101001.60
2018-07-11T03:31:36.265Z,100993.52
2018-07-11T03:34:05.169Z,100996.73
2018-07-11T03:36:33.820Z,100995.06
2018-07-11T03:39:02.710Z,100993.33
2018-07-11T03:41:31.700Z,100990.21
2018-07-11T03:44:00.356Z,100988.58
2018-07-11T03:46:29.327Z,100987.23
2018-07-11T03:48:57.984Z,100989.93
2018-07-11T03:51:26.936Z,100993.97
2018-07-11T03:53:56.200Z,100997.26
2018-07-11T03:56:24.845Z,101000.08
2018-07-11T03:58:54.283Z,100997.29
2018-07-11T04:01:22.965Z,101003.51
2018-07-11T04:03:51.705Z,101007.66
2018-07-11T04:06:20.393Z,101006.08
2018-07-11T04:08:49.157Z,101000.61
2018-07-11T04:11:17.814Z,101005.69
2018-07-11T04:13:46.461Z,101006.00
2018-07-11T04:16:15.121Z,101010.66
2018-07-11T04:18:43.704Z,101013.44
2018-07-11T04:21:12.322Z,101011.89
2018-07-11T04:23:41.075Z,101013.36
2018-07-11T04:26:09.744Z,101014.89
2018-07-11T04:28:38.428Z,101016.24
2018-07-11T04:31:07.463Z,101013.23
2018-07-11T04:33:36.153Z,101016.55
2018-07-11T04:36:04.841Z,101017.79
2018-07-11T04:38:33.565Z,101014.91
2018-07-11T04:41:02.517Z,101010.88
2018-07-11T04:43:31.480Z,101012.32
2018-07-11T04:46:00.183Z,101016.28
2018-07-11T04:48:28.861Z,101011.92
2018-07-11T04:50:57.788Z,101005.80
2018-07-11T04:53:27.759Z,101007.58
2018-07-11T04:55:57.898Z,101002.39
2018-07-11T04:58:26.945Z,101009.31
2018-07-11T05:00:56.354Z,101008.72
2018-07-11T05:03:25.489Z,101006.53
2018-07-11T05:05:54.494Z,101016.78
2018-07-11T05:08:24.085Z,101014.48
2018-07-11T05:10:53.148Z,101012.20
2018-07-11T05:13:22.148Z,101013.84
2018-07-11T05:15:50.809Z,101011.55
2018-07-11T05:18:19.487Z,101015.88
2018-07-11T05:20:48.138Z,101012.12
2018-07-11T05:23:17.166Z,101014.28
2018-07-11T05:25:46.212Z,101002.16
2018-07-11T05:28:14.828Z,101005.03
2018-07-11T05:30:44.160Z,101005.44
2018-07-11T05:33:13.131Z,101004.84
2018-07-11T05:35:41.733Z,101005.37
2018-07-11T05:38:10.802Z,101004.95
2018-07-11T05:40:39.513Z,101000.00
2018-07-11T05:43:08.139Z,101000.96
2018-07-11T05:45:36.800Z,100994.05
2018-07-11T05:48:06.016Z,101001.81
2018-07-11T05:50:35.010Z,100995.98
2018-07-11T05:53:03.664Z,100997.95
2018-07-11T05:55:32.546Z,100997.64
2018-07-11T05:58:01.177Z,100990.05
2018-07-11T06:00:29.803Z,100995.52
2018-07-11T06:02:58.487Z,100992.58
2018-07-11T06:05:27.543Z,101000.74
2018-07-11T06:07:56.674Z,101005.38
2018-07-11T06:10:26.555Z,101006.20
2018-07-11T06:12:55.485Z,101007.76
2018-07-11T06:15:24.072Z,101004.20
2018-07-11T06:17:52.741Z,101007.93
2018-07-11T06:20:21.447Z,101004.58
2018-07-11T06:22:50.253Z,101000.56
2018-07-11T06:25:19.310Z,101007.52
2018-07-11T06:27:47.968Z,101005.03
2018-07-11T06:30:16.676Z,101014.29
2018-07-11T06:32:45.387Z,101009.00
2018-07-11T06:35:14.037Z,101010.80
2018-07-11T06:37:42.975Z,101016.23
2018-07-11T06:40:11.717Z,101017.53
2018-07-11T06:42:40.752Z,101024.20
2018-07-11T06:45:09.378Z,101028.03
2018-07-11T06:47:38.066Z,101022.81
2018-07-11T06:50:06.759Z,101021.50
2018-07-11T06:52:35.449Z,101019.05
2018-07-11T06:55:04.454Z,101018.39
2018-07-11T06:57:33.201Z,101022.05
2018-07-11T07:00:01.890Z,101013.81
2018-07-11T07:02:30.562Z,101011.16
2018-07-11T07:04:59.190Z,101009.63
2018-07-11T07:07:27.946Z,101009.22
2018-07-11T07:09:56.951Z,101006.48
2018-07-11T07:12:25.552Z,100997.92
2018-07-11T07:14:54.160Z,100997.23
2018-07-11T07:17:22.811Z,100994.09
2018-07-11T07:19:51.452Z,100997.41
2018-07-11T07:22:20.381Z,100994.31
2018-07-11T07:24:49.385Z,101005.35
2018-07-11T07:27:18.045Z,101001.25
2018-07-11T07:29:46.681Z,101004.73
2018-07-11T07:32:15.662Z,101006.28
2018-07-11T07:34:44.302Z,100999.47
2018-07-11T07:37:12.961Z,100994.19
2018-07-11T07:39:41.723Z,100995.55
2018-07-11T07:42:10.286Z,101001.59
2018-07-11T07:44:39.681Z,100994.44
2018-07-11T07:47:12.547Z,100996.47
2018-07-11T07:49:41.121Z,100991.80
2018-07-11T07:52:09.841Z,100993.92
2018-07-11T07:54:38.877Z,100987.46
2018-07-11T07:57:08.006Z,100992.84
2018-07-11T07:59:37.021Z,100992.44
2018-07-11T08:02:06.034Z,100997.18
2018-07-11T08:04:34.741Z,100993.91
2018-07-11T08:07:03.635Z,100997.42
2018-07-11T08:09:32.256Z,100991.64
2018-07-11T08:12:01.010Z,100992.77
2018-07-11T08:14:29.738Z,100996.06
2018-07-11T08:16:58.464Z,100988.97
2018-07-11T08:19:27.119Z,100992.19
2018-07-11T08:21:55.823Z,100989.94
2018-07-11T08:24:35.588Z,100993.90
2018-07-11T08:28:16.932Z,100990.47
2018-07-11T08:31:02.249Z,100990.71
2018-07-11T08:33:42.396Z,100991.12
2018-07-11T08:36:24.205Z,100988.80
2018-07-11T08:41:17.925Z,100995.43
2018-07-11T08:44:17.188Z,100995.08
2018-07-11T08:49:01.491Z,100992.07
2018-07-11T08:54:47.721Z,100995.30
2018-07-11T08:57:28.653Z,100995.30
2018-07-11T09:01:06.910Z,100990.61
2018-07-11T09:05:57.336Z,100992.97
2018-07-11T09:08:35.131Z,100995.44
2018-07-11T09:11:19.693Z,100989.95
2018-07-11T09:16:05.269Z,100987.85
2018-07-11T09:18:59.217Z,100988.77
2018-07-11T09:21:40.750Z,100977.92
2018-07-11T09:24:39.082Z,100974.88
2018-07-11T09:27:07.974Z,100974.93
2018-07-11T09:29:37.988Z,100975.73
2018-07-11T09:32:06.993Z,100974.38
2018-07-11T09:34:35.645Z,100973.55
2018-07-11T09:37:04.543Z,100980.39
2018-07-11T09:39:33.826Z,100976.77
2018-07-11T09:42:02.669Z,100977.12
2018-07-11T09:44:31.526Z,100977.30
2018-07-11T09:47:00.399Z,100970.60
2018-07-11T09:49:32.621Z,100973.73
2018-07-11T09:52:01.552Z,100974.05
2018-07-11T09:54:30.569Z,100970.18
2018-07-11T09:56:59.233Z,100970.23
2018-07-11T09:59:28.429Z,100977.67
2018-07-11T10:01:57.591Z,100973.09
2018-07-11T10:04:27.448Z,100984.09
2018-07-11T10:06:56.223Z,100978.29
2018-07-11T10:09:24.850Z,100986.28
2018-07-11T10:11:53.811Z,100975.81
2018-07-11T10:14:23.041Z,100985.56
2018-07-11T10:16:52.057Z,100987.09
2018-07-11T10:19:20.811Z,100983.74
2018-07-11T10:21:49.876Z,100977.88
2018-07-11T10:24:18.639Z,100978.52
2018-07-11T10:26:47.431Z,100973.86
2018-07-11T10:29:16.582Z,100965.09
2018-07-11T10:31:45.966Z,100968.31
2018-07-11T10:34:15.534Z,100974.62
2018-07-11T10:36:45.824Z,100973.59
2018-07-11T10:39:14.908Z,100966.71
2018-07-11T10:41:44.010Z,100968.18
2018-07-11T10:44:12.767Z,100966.28
2018-07-11T10:46:41.721Z,100966.53
2018-07-11T10:49:10.513Z,100961.27
2018-07-11T10:51:39.225Z,100956.93
2018-07-11T10:54:08.011Z,100954.17
2018-07-11T10:56:36.708Z,100958.20
2018-07-11T10:59:05.394Z,100957.05
2018-07-11T11:01:34.401Z,100963.83
2018-07-11T11:04:03.235Z,100961.64
2018-07-11T11:06:31.933Z,100955.75
2018-07-11T11:09:00.666Z,100955.73
2018-07-11T11:11:29.468Z,100958.47
2018-07-11T11:13:58.203Z,100954.33
2018-07-11T11:16:27.570Z,100952.75
2018-07-11T11:18:56.615Z,100951.46
2018-07-11T11:21:26.266Z,100953.44
2018-07-11T11:23:55.119Z,100949.25
2018-07-11T11:26:23.882Z,100950.30
2018-07-11T11:28:52.534Z,100948.69
2018-07-11T11:31:21.346Z,100942.37
2018-07-11T11:33:50.114Z,100941.02
2018-07-11T11:36:19.255Z,100943.28
2018-07-11T11:38:48.093Z,100941.38
2018-07-11T11:41:16.848Z,100943.72
2018-07-11T11:43:45.539Z,100938.41
2018-07-11T11:46:14.241Z,100937.48
2018-07-11T11:48:43.279Z,100931.78
2018-07-11T11:51:12.302Z,100932.70
2018-07-11T11:53:41.409Z,100930.62
2018-07-11T11:56:10.136Z,100930.92
2018-07-11T11:58:39.344Z,100923.24
2018-07-11T12:01:08.116Z,100924.10
2018-07-11T12:03:37.137Z,100919.96
2018-07-11T12:06:06.324Z,100918.65
2018-07-11T12:08:35.410Z,100911.55
2018-07-11T12:11:04.469Z,100916.69
2018-07-11T12:13:33.142Z,100906.55
2018-07-11T12:16:02.422Z,100914.28
2018-07-11T12:18:31.249Z,100903.59
2018-07-11T12:21:00.977Z,100902.53
2018-07-11T12:23:29.960Z,100904.64
2018-07-11T12:26:07.030Z,100906.94
2018-07-11T12:28:36.091Z,100902.46
2018-07-11T12:31:05.562Z,100907.23
2018-07-11T12:33:34.459Z,100904.08
2018-07-11T12:36:03.534Z,100899.92
2018-07-11T12:38:32.620Z,100897.60
2018-07-11T12:41:01.612Z,100890.94
2018-07-11T12:43:30.383Z,100895.13
2018-07-11T12:45:59.333Z,100892.87
2018-07-11T12:48:33.121Z,100891.18
2018-07-11T12:51:01.904Z,100889.62
2018-07-11T12:53:30.974Z,100887.69
2018-07-11T12:55:59.995Z,100890.90
2018-07-11T12:58:28.858Z,100882.55
2018-07-11T13:00:57.620Z,100878.45
2018-07-11T13:03:26.658Z,100877.14
2018-07-11T13:05:55.647Z,100872.39
2018-07-11T13:08:24.681Z,100868.71
2018-07-11T13:10:53.327Z,100864.44
2018-07-11T13:13:22.227Z,100867.80
2018-07-11T13:15:50.893Z,100865.41
2018-07-11T13:18:19.879Z,100866.95
2018-07-11T13:20:48.883Z,100866.52
2018-07-11T13:23:17.559Z,100864.25
2018-07-11T13:25:46.682Z,100860.55
2018-07-11T13:28:15.381Z,100865.95
2018-07-11T13:30:44.677Z,100858.34
2018-07-11T13:33:13.760Z,100861.83
2018-07-11T13:35:43.054Z,100863.17
2018-07-11T13:38:12.445Z,100851.23
2018-07-11T13:40:41.341Z,100849.96
2018-07-11T13:43:11.494Z,100846.06
2018-07-11T13:45:43.079Z,100847.20
2018-07-11T13:48:11.852Z,100834.89
2018-07-11T13:50:40.661Z,100838.13
2018-07-11T13:53:09.734Z,100838.61
2018-07-11T13:55:38.439Z,100836.37
2018-07-11T13:58:07.718Z,100839.14
2018-07-11T14:00:36.403Z,100836.48
2018-07-11T14:03:05.558Z,100842.16
2018-07-11T14:05:34.218Z,100839.76
2018-07-11T14:08:03.624Z,100842.52
2018-07-11T14:10:35.709Z,100841.45
2018-07-11T14:13:04.765Z,100846.11
2018-07-11T14:15:33.753Z,100839.89
2018-07-11T14:18:02.947Z,100848.10
2018-07-11T14:20:31.988Z,100850.59
2018-07-11T14:23:08.668Z,100853.03
2018-07-11T14:25:40.491Z,100860.86
2018-07-11T14:28:09.557Z,100875.94
2018-07-11T14:30:39.383Z,100875.87
2018-07-11T14:33:09.759Z,100884.55
2018-07-11T14:35:38.472Z,100884.24
2018-07-11T14:38:08.494Z,100881.95
2018-07-11T14:40:37.370Z,100874.44
2018-07-11T14:43:06.110Z,100877.72
2018-07-11T14:45:34.946Z,100876.52
2018-07-11T14:48:10.522Z,100868.03
2018-07-11T14:50:39.266Z,100874.06
2018-07-11T14:53:08.015Z,100874.20
2018-07-11T14:55:37.101Z,100872.20
2018-07-11T14:58:05.914Z,100866.58
2018-07-11T15:00:34.641Z,100869.50
2018-07-11T15:03:03.590Z,100876.05
2018-07-11T15:05:32.353Z,100878.71
2018-07-11T15:08:01.990Z,100878.41
2018-07-11T15:10:31.910Z,100869.71
2018-07-11T15:13:01.347Z,100866.16
2018-07-11T15:15:30.942Z,100865.92
2018-07-11T15:18:00.399Z,100864.69
2018-07-11T15:20:29.610Z,100862.98
2018-07-11T15:22:58.394Z,100862.25
2018-07-11T15:25:27.039Z,100858.77
2018-07-11T15:27:56.149Z,100858.64
2018-07-11T15:30:24.842Z,100869.35
2018-07-11T15:32:53.851Z,100860.44
2018-07-11T15:35:22.655Z,100868.02
2018-07-11T15:37:51.436Z,100864.02
2018-07-11T15:40:20.119Z,100867.05
2018-07-11T15:42:49.242Z,100872.83
2018-07-11T15:45:17.965Z,100874.91
2018-07-11T15:47:47.758Z,100879.52
2018-07-11T15:50:16.471Z,100886.34
2018-07-11T15:52:45.215Z,100890.87
2018-07-11T15:55:13.971Z,100886.04
2018-07-11T15:57:50.291Z,100882.76
2018-07-11T16:00:20.586Z,100889.78
2018-07-11T16:02:50.434Z,100884.57
2018-07-11T16:05:23.504Z,100889.11
2018-07-11T16:07:54.880Z,100882.92
2018-07-11T16:10:29.860Z,100875.13
2018-07-11T16:12:58.906Z,100871.72
2018-07-11T16:15:27.608Z,100877.63
2018-07-11T16:17:56.419Z,100885.53
2018-07-11T16:20:25.189Z,100877.98
2018-07-11T16:22:53.914Z,100870.61
2018-07-11T16:25:22.768Z,100862.91
2018-07-11T16:27:51.598Z,100865.97
2018-07-11T16:30:20.367Z,100866.28
2018-07-11T16:32:49.144Z,100875.54
2018-07-11T16:35:17.917Z,100872.53
2018-07-11T16:37:46.658Z,100874.66
2018-07-11T16:40:15.718Z,100875.47
2018-07-11T16:42:45.125Z,100877.13
2018-07-11T16:45:16.261Z,100877.59
2018-07-11T16:47:46.040Z,100871.88
2018-07-11T16:50:15.007Z,100871.58
2018-07-11T16:52:44.847Z,100864.50
2018-07-11T16:55:14.856Z,100857.77
2018-07-11T16:57:52.964Z,100861.90
2018-07-11T17:00:24.568Z,100865.14
2018-07-11T17:03:26.408Z,100863.87
2018-07-11T17:06:00.705Z,100866.39
2018-07-11T17:08:33.876Z,100869.37
2018-07-11T17:11:14.343Z,100881.05
2018-07-11T17:13:47.297Z,100880.33
2018-07-11T17:16:16.635Z,100874.08
2018-07-11T17:18:47.718Z,100871.55
2018-07-11T17:21:23.434Z,100874.27
2018-07-11T17:23:54.846Z,100872.06
2018-07-11T17:26:26.859Z,100864.69
2018-07-11T17:28:58.196Z,100866.53
2018-07-11T17:31:28.398Z,100862.08
2018-07-11T17:33:57.742Z,100866.69
2018-07-11T17:36:26.974Z,100865.59
2018-07-11T17:38:55.773Z,100855.81
2018-07-11T17:41:24.742Z,100853.55
2018-07-11T17:43:54.118Z,100860.54
2018-07-11T17:46:23.499Z,100867.05
2018-07-11T17:49:17.669Z,100865.16
2018-07-11T17:51:55.073Z,100866.73
2018-07-11T17:54:28.797Z,100875.11
2018-07-11T17:56:59.408Z,100877.77
2018-07-11T17:59:38.635Z,100869.31
2018-07-11T18:02:13.331Z,100874.68
2018-07-11T18:04:49.016Z,100878.19
2018-07-11T18:07:28.362Z,100885.15
2018-07-11T18:10:04.922Z,100887.56
2018-07-11T18:12:46.376Z,100889.16
2018-07-11T18:16:46.902Z,100895.70
2018-07-11T18:23:36.796Z,100898.13
2018-07-11T18:26:18.524Z,100904.52
2018-07-11T18:28:58.379Z,100913.25
2018-07-11T18:31:37.361Z,100906.25
2018-07-11T18:36:19.422Z,100911.45
2018-07-11T18:38:55.119Z,100900.27
2018-07-11T18:41:35.923Z,100900.98
2018-07-11T18:44:22.939Z,100895.83
2018-07-11T18:47:02.408Z,100899.83
2018-07-11T18:49:37.222Z,100895.77
2018-07-11T18:52:13.121Z,100898.71
2018-07-11T18:57:08.874Z,100901.10
2018-07-11T18:59:47.584Z,100893.38
2018-07-11T19:02:30.739Z,100898.50
2018-07-11T19:05:16.881Z,100894.58
2018-07-11T19:08:56.555Z,100884.47
2018-07-11T19:11:27.361Z,100879.72
2018-07-11T19:14:04.315Z,100882.08
2018-07-11T19:16:46.997Z,100882.58
2018-07-11T19:19:21.041Z,100890.64
2018-07-11T19:21:57.355Z,100891.61
2018-07-11T19:24:36.665Z,100910.12
2018-07-11T19:27:15.567Z,100915.35
2018-07-11T19:30:06.067Z,100918.02
2018-07-11T19:32:59.141Z,100922.89
2018-07-11T19:35:40.866Z,100911.64
2018-07-11T19:38:23.215Z,100922.68
2018-07-11T19:41:32.799Z,100921.63
2018-07-11T19:44:42.415Z,100933.88
2018-07-11T19:47:22.914Z,100946.71
2018-07-11T19:50:13.774Z,100936.63
2018-07-11T19:53:27.520Z,100941.05
2018-07-11T19:57:02.211Z,100949.13
2018-07-11T19:59:31.091Z,100957.64
2018-07-11T20:02:00.305Z,100971.06
2018-07-11T20:04:29.289Z,100968.43
2018-07-11T20:06:58.209Z,100963.88
2018-07-11T20:09:27.223Z,100969.25
2018-07-11T20:11:56.438Z,100973.88
2018-07-11T20:14:25.492Z,100970.36
2018-07-11T20:16:55.070Z,100972.13
2018-07-11T20:19:24.333Z,100978.77
2018-07-11T20:21:54.102Z,100977.05
2018-07-11T20:24:22.965Z,100980.01
2018-07-11T20:26:53.246Z,100982.55
2018-07-11T20:29:21.991Z,100980.63
2018-07-11T20:31:50.962Z,100984.68
2018-07-11T20:34:19.813Z,100985.34
2018-07-11T20:36:48.640Z,100985.86
2018-07-11T20:39:17.487Z,100995.94
2018-07-11T20:41:46.355Z,100998.94
2018-07-11T20:44:17.663Z,101007.19
2018-07-11T20:46:47.648Z,101011.38
2018-07-11T20:49:21.399Z,101024.46
2018-07-11T20:51:50.498Z,101044.22
2018-07-11T20:54:19.255Z,101045.36
2018-07-11T20:56:47.996Z,101043.95
2018-07-11T20:59:27.788Z,101042.52
2018-07-11T21:02:07.597Z,101034.55
2018-07-11T21:07:01.589Z,101041.20
2018-07-11T21:09:41.129Z,101038.72
2018-07-11T21:12:27.026Z,101032.36
2018-07-11T21:17:12.768Z,101044.03
2018-07-11T21:19:41.485Z,101045.59
2018-07-11T21:22:10.256Z,101040.77
2018-07-11T21:24:38.956Z,101035.41
2018-07-11T21:27:07.998Z,101036.14
2018-07-11T21:29:36.765Z,101043.20
2018-07-11T21:32:06.719Z,101037.77
2018-07-11T21:34:35.401Z,101038.88
2018-07-11T21:37:05.598Z,101043.72
2018-07-11T21:39:34.646Z,101043.68
2018-07-11T21:42:04.504Z,101036.23
2018-07-11T21:44:33.443Z,101041.00
2018-07-11T21:47:02.511Z,101040.36
2018-07-11T21:49:31.270Z,101035.09
2018-07-11T21:52:00.230Z,101036.72
2018-07-11T21:54:29.318Z,101039.09
2018-07-11T21:56:58.213Z,101032.42
2018-07-11T21:59:27.142Z,101030.78
2018-07-11T22:01:56.162Z,101022.00
2018-07-11T22:04:24.826Z,101023.87
2018-07-11T22:06:54.295Z,101019.83
2018-07-11T22:09:23.332Z,101018.00
2018-07-11T22:11:52.346Z,101010.73
2018-07-11T22:14:21.262Z,101004.32
2018-07-11T22:16:50.013Z,100997.18
2018-07-11T22:19:18.837Z,100985.39
2018-07-11T22:21:46.518Z,100986.11
2018-07-11T22:24:13.870Z,100988.61
2018-07-11T22:26:41.470Z,100984.70
2018-07-11T22:29:08.791Z,100974.63
2018-07-11T22:31:36.464Z,100976.94
2018-07-11T22:34:04.174Z,100976.50
2018-07-11T22:36:33.486Z,100965.84
2018-07-11T22:39:07.182Z,100963.13
2018-07-11T22:41:34.508Z,100968.09
2018-07-11T22:44:03.066Z,100958.77
2018-07-11T22:46:30.784Z,100958.87
2018-07-11T22:48:58.107Z,100956.23
2018-07-11T22:51:25.447Z,100952.48
2018-07-11T22:53:52.830Z,100950.25
2018-07-11T22:56:20.185Z,100949.87
2018-07-11T22:58:47.776Z,100942.57
2018-07-11T23:01:15.182Z,100938.00
2018-07-11T23:03:42.523Z,100935.78
2018-07-11T23:06:09.878Z,100931.17
2018-07-11T23:08:37.244Z,100928.03
2018-07-11T23:11:04.611Z,100928.95
2018-07-11T23:13:31.945Z,100920.44
2018-07-11T23:15:59.799Z,100917.28
2018-07-11T23:18:27.100Z,100909.72
2018-07-11T23:20:54.434Z,100908.16
2018-07-11T23:23:22.398Z,100902.45
2018-07-11T23:25:49.738Z,100903.38
2018-07-11T23:28:17.050Z,100898.05
2018-07-11T23:30:44.614Z,100899.64
2018-07-11T23:33:11.995Z,100893.48
2018-07-11T23:35:39.323Z,100895.03
2018-07-11T23:38:06.946Z,100898.14
2018-07-11T23:40:34.725Z,100892.13
2018-07-11T23:43:02.059Z,100889.22
2018-07-11T23:45:29.726Z,100890.20
2018-07-11T23:47:57.339Z,100898.88
2018-07-11T23:50:24.661Z,100901.87
2018-07-11T23:52:52.080Z,100899.18
2018-07-11T23:55:19.418Z,100900.31
2018-07-11T23:57:46.743Z,100902.28
